sensor_id;sensor_type;location;lat;lon;timestamp;pressure;altitude;pressure_sealevel;temperature;humidity
66689;BME280;53587;59.318;18.084;2023-10-19T00:00:54;101803.97;;;18.17;84.08
66689;BME280;53587;59.318;18.084;2023-10-19T00:03:21;101807.75;;;18.48;90.67
66689;BME280;53587;59.318;18.084;2023-10-19T00:05:46;101803.97;;;18.70;91.66
66689;BME280;53587;59.318;18.084;2023-10-19T00:08:14;101799.16;;;18.98;92.48
66689;BME280;53587;59.318;18.084;2023-10-19T00:10:50;101797.00;;;19.21;92.03
66689;BME280;53587;59.318;18.084;2023-10-19T00:13:27;101792.88;;;19.44;91.36
66689;BME280;53587;59.318;18.084;2023-10-19T00:15:54;101797.03;;;19.67;89.76
66689;BME280;53587;59.318;18.084;2023-10-19T00:18:19;101790.66;;;19.36;83.88
66689;BME280;53587;59.318;18.084;2023-10-19T00:20:50;101790.78;;;18.82;80.12
66689;BME280;53587;59.318;18.084;2023-10-19T00:23:24;101783.91;;;18.32;78.71
66689;BME280;53587;59.318;18.084;2023-10-19T00:25:54;101788.47;;;18.06;82.20
66689;BME280;53587;59.318;18.084;2023-10-19T00:28:20;101796.03;;;18.26;88.92
66689;BME280;53587;59.318;18.084;2023-10-19T00:30:47;101793.69;;;18.50;91.15
66689;BME280;53587;59.318;18.084;2023-10-19T00:33:14;101789.66;;;18.78;91.62
66689;BME280;53587;59.318;18.084;2023-10-19T00:35:49;101787.00;;;18.99;91.28
66689;BME280;53587;59.318;18.084;2023-10-19T00:38:41;101780.41;;;19.26;91.14
66689;BME280;53587;59.318;18.084;2023-10-19T00:41:22;101785.69;;;19.48;91.39
66689;BME280;53587;59.318;18.084;2023-10-19T00:43:58;101782.13;;;19.68;92.66
66689;BME280;53587;59.318;18.084;2023-10-19T00:46:28;101783.19;;;19.83;89.88
66689;BME280;53587;59.318;18.084;2023-10-19T00:49:09;101784.78;;;19.01;76.25
66689;BME280;53587;59.318;18.084;2023-10-19T00:51:36;101776.63;;;18.58;78.06
66689;BME280;53587;59.318;18.084;2023-10-19T00:54:09;101786.59;;;18.16;77.30
66689;BME280;53587;59.318;18.084;2023-10-19T00:56:36;101784.34;;;18.08;85.53
66689;BME280;53587;59.318;18.084;2023-10-19T00:59:01;101790.81;;;18.29;90.49
66689;BME280;53587;59.318;18.084;2023-10-19T01:01:53;101794.28;;;18.57;91.91
66689;BME280;53587;59.318;18.084;2023-10-19T01:04:21;101792.44;;;18.78;90.57
66689;BME280;53587;59.318;18.084;2023-10-19T01:06:55;101798.88;;;18.99;90.45
66689;BME280;53587;59.318;18.084;2023-10-19T01:09:31;101797.00;;;19.21;91.23
66689;BME280;53587;59.318;18.084;2023-10-19T01:12:01;101798.13;;;19.40;93.35
66689;BME280;53587;59.318;18.084;2023-10-19T01:14:30;101799.81;;;19.62;91.83
66689;BME280;53587;59.318;18.084;2023-10-19T01:16:57;101795.94;;;19.73;89.65
66689;BME280;53587;59.318;18.084;2023-10-19T01:19:23;101794.22;;;19.15;77.14
66689;BME280;53587;59.318;18.084;2023-10-19T01:21:49;101789.56;;;18.58;77.58
66689;BME280;53587;59.318;18.084;2023-10-19T01:24:19;101788.59;;;18.26;77.07
66689;BME280;53587;59.318;18.084;2023-10-19T01:26:49;101785.59;;;18.33;87.38
66689;BME280;53587;59.318;18.084;2023-10-19T01:29:14;101786.50;;;18.54;90.88
66689;BME280;53587;59.318;18.084;2023-10-19T01:31:42;101789.09;;;18.81;91.73
66689;BME280;53587;59.318;18.084;2023-10-19T01:34:21;101779.25;;;19.01;90.81
66689;BME280;53587;59.318;18.084;2023-10-19T01:36:47;101786.22;;;19.19;90.01
66689;BME280;53587;59.318;18.084;2023-10-19T01:39:15;101789.56;;;19.37;91.62
66689;BME280;53587;59.318;18.084;2023-10-19T01:41:40;101790.38;;;19.58;91.72
66689;BME280;53587;59.318;18.084;2023-10-19T01:44:06;101776.31;;;19.70;90.47
66689;BME280;53587;59.318;18.084;2023-10-19T01:46:32;101767.16;;;19.38;81.77
66689;BME280;53587;59.318;18.084;2023-10-19T01:49:02;101766.97;;;18.66;76.31
66689;BME280;53587;59.318;18.084;2023-10-19T01:51:28;101762.41;;;18.34;78.11
66689;BME280;53587;59.318;18.084;2023-10-19T01:53:57;101766.25;;;17.90;76.65
66689;BME280;53587;59.318;18.084;2023-10-19T01:56:29;101761.22;;;18.14;87.66
66689;BME280;53587;59.318;18.084;2023-10-19T01:58:58;101770.16;;;18.37;90.80
66689;BME280;53587;59.318;18.084;2023-10-19T02:01:26;101764.75;;;18.63;91.59
66689;BME280;53587;59.318;18.084;2023-10-19T02:03:54;101760.41;;;18.82;90.96
66689;BME280;53587;59.318;18.084;2023-10-19T02:06:22;101783.13;;;19.00;89.91
66689;BME280;53587;59.318;18.084;2023-10-19T02:09:19;101785.41;;;19.19;89.51
66689;BME280;53587;59.318;18.084;2023-10-19T02:12:03;101782.09;;;19.37;92.04
66689;BME280;53587;59.318;18.084;2023-10-19T02:14:33;101779.63;;;19.56;92.29
66689;BME280;53587;59.318;18.084;2023-10-19T02:17:02;101790.94;;;19.75;90.03
66689;BME280;53587;59.318;18.084;2023-10-19T02:19:34;101782.09;;;19.37;81.07
66689;BME280;53587;59.318;18.084;2023-10-19T02:22:00;101777.25;;;18.86;77.63
66689;BME280;53587;59.318;18.084;2023-10-19T02:24:28;101782.84;;;18.38;77.01
66689;BME280;53587;59.318;18.084;2023-10-19T02:26:55;101778.31;;;18.11;81.31
66689;BME280;53587;59.318;18.084;2023-10-19T02:29:24;101788.91;;;18.30;87.64
66689;BME280;53587;59.318;18.084;2023-10-19T02:31:58;101780.75;;;18.56;91.53
66689;BME280;53587;59.318;18.084;2023-10-19T02:34:29;101772.53;;;18.76;89.53
66689;BME280;53587;59.318;18.084;2023-10-19T02:36:57;101774.78;;;18.90;89.40
66689;BME280;53587;59.318;18.084;2023-10-19T02:39:25;101771.84;;;19.17;92.48
66689;BME280;53587;59.318;18.084;2023-10-19T02:41:55;101762.19;;;19.35;91.69
66689;BME280;53587;59.318;18.084;2023-10-19T02:44:30;101772.72;;;19.54;89.53
66689;BME280;53587;59.318;18.084;2023-10-19T02:47:10;101769.38;;;19.67;90.10
66689;BME280;53587;59.318;18.084;2023-10-19T02:49:41;101762.19;;;19.82;90.99
66689;BME280;53587;59.318;18.084;2023-10-19T02:54:54;101774.31;;;19.08;79.23
66689;BME280;53587;59.318;18.084;2023-10-19T02:57:30;101758.69;;;18.61;78.88
66689;BME280;53587;59.318;18.084;2023-10-19T03:00:01;101768.38;;;18.15;77.81
66689;BME280;53587;59.318;18.084;2023-10-19T03:02:51;101771.50;;;18.29;88.18
66689;BME280;53587;59.318;18.084;2023-10-19T03:05:19;101779.59;;;18.46;89.82
66689;BME280;53587;59.318;18.084;2023-10-19T03:07:54;101770.03;;;18.64;90.84
66689;BME280;53587;59.318;18.084;2023-10-19T03:10:29;101778.06;;;18.81;89.68
66689;BME280;53587;59.318;18.084;2023-10-19T03:13:21;101781.47;;;18.99;89.09
66689;BME280;53587;59.318;18.084;2023-10-19T03:15:49;101778.50;;;19.21;90.29
66689;BME280;53587;59.318;18.084;2023-10-19T03:18:14;101775.47;;;19.43;91.20
66689;BME280;53587;59.318;18.084;2023-10-19T03:20:40;101779.06;;;19.65;90.68
66689;BME280;53587;59.318;18.084;2023-10-19T03:23:16;101771.03;;;19.78;89.61
66689;BME280;53587;59.318;18.084;2023-10-19T03:25:55;101765.50;;;19.27;80.75
66689;BME280;53587;59.318;18.084;2023-10-19T03:28:40;101754.00;;;18.72;78.69
66689;BME280;53587;59.318;18.084;2023-10-19T03:31:11;101757.69;;;18.29;78.20
66689;BME280;53587;59.318;18.084;2023-10-19T03:33:46;101767.28;;;18.11;84.08
66689;BME280;53587;59.318;18.084;2023-10-19T03:36:25;101750.59;;;18.39;89.28
66689;BME280;53587;59.318;18.084;2023-10-19T03:38:51;101758.13;;;18.64;90.99
66689;BME280;53587;59.318;18.084;2023-10-19T03:41:18;101751.00;;;18.83;90.09
66689;BME280;53587;59.318;18.084;2023-10-19T03:43:49;101747.78;;;19.02;88.43
66689;BME280;53587;59.318;18.084;2023-10-19T03:46:17;101757.19;;;19.11;89.22
66689;BME280;53587;59.318;18.084;2023-10-19T03:49:05;101743.38;;;19.32;90.42
66689;BME280;53587;59.318;18.084;2023-10-19T03:51:39;101751.13;;;19.51;89.18
66689;BME280;53587;59.318;18.084;2023-10-19T03:54:25;101750.03;;;19.67;89.34
66689;BME280;53587;59.318;18.084;2023-10-19T03:56:54;101746.16;;;19.84;89.19
66689;BME280;53587;59.318;18.084;2023-10-19T03:59:26;101756.13;;;19.54;81.67
66689;BME280;53587;59.318;18.084;2023-10-19T04:01:57;101729.81;;;19.05;79.84
66689;BME280;53587;59.318;18.084;2023-10-19T04:04:25;101736.31;;;18.62;77.98
66689;BME280;53587;59.318;18.084;2023-10-19T04:06:50;101742.47;;;18.16;77.83
66689;BME280;53587;59.318;18.084;2023-10-19T04:09:22;101737.91;;;18.48;87.36
66689;BME280;53587;59.318;18.084;2023-10-19T04:11:48;101747.16;;;18.85;90.63
66689;BME280;53587;59.318;18.084;2023-10-19T04:14:16;101748.09;;;19.31;92.10
66689;BME280;53587;59.318;18.084;2023-10-19T04:16:46;101757.22;;;19.73;91.59
66689;BME280;53587;59.318;18.084;2023-10-19T04:19:13;101752.25;;;19.86;86.05
66689;BME280;53587;59.318;18.084;2023-10-19T04:21:39;101747.28;;;19.36;79.35
66689;BME280;53587;59.318;18.084;2023-10-19T04:24:09;101748.66;;;18.44;72.70
66689;BME280;53587;59.318;18.084;2023-10-19T04:26:34;101756.38;;;19.26;89.92
66689;BME280;53587;59.318;18.084;2023-10-19T04:29:03;101758.31;;;19.77;92.26
66689;BME280;53587;59.318;18.084;2023-10-19T04:34:20;101731.66;;;18.68;69.60
66689;BME280;53587;59.318;18.084;2023-10-19T04:36:49;101741.63;;;18.85;86.89
66689;BME280;53587;59.318;18.084;2023-10-19T04:39:18;101737.84;;;19.58;91.73
66689;BME280;53587;59.318;18.084;2023-10-19T04:41:46;101735.66;;;19.86;89.95
66689;BME280;53587;59.318;18.084;2023-10-19T04:44:13;101732.78;;;18.77;70.85
66689;BME280;53587;59.318;18.084;2023-10-19T04:46:40;101737.19;;;18.68;85.88
66689;BME280;53587;59.318;18.084;2023-10-19T04:49:06;101741.47;;;19.53;91.53
66689;BME280;53587;59.318;18.084;2023-10-19T04:51:31;101743.94;;;19.75;87.14
66689;BME280;53587;59.318;18.084;2023-10-19T04:54:01;101736.00;;;18.48;71.87
66689;BME280;53587;59.318;18.084;2023-10-19T04:56:27;101739.28;;;18.45;86.50
66689;BME280;53587;59.318;18.084;2023-10-19T04:58:53;101744.22;;;19.38;92.60
66689;BME280;53587;59.318;18.084;2023-10-19T05:01:18;101738.97;;;19.62;87.15
66689;BME280;53587;59.318;18.084;2023-10-19T05:03:52;101731.25;;;18.33;70.63
66689;BME280;53587;59.318;18.084;2023-10-19T05:06:23;101743.19;;;18.55;87.34
66689;BME280;53587;59.318;18.084;2023-10-19T05:08:48;101742.84;;;19.40;92.38
66689;BME280;53587;59.318;18.084;2023-10-19T05:11:13;101745.34;;;19.62;89.00
66689;BME280;53587;59.318;18.084;2023-10-19T05:13:39;101741.22;;;18.45;73.07
66689;BME280;53587;59.318;18.084;2023-10-19T05:16:04;101747.66;;;18.71;88.22
66689;BME280;53587;59.318;18.084;2023-10-19T05:18:29;101752.25;;;19.60;93.05
66689;BME280;53587;59.318;18.084;2023-10-19T05:21:02;101738.97;;;19.46;77.53
66689;BME280;53587;59.318;18.084;2023-10-19T05:23:27;101734.94;;;17.69;69.49
66689;BME280;53587;59.318;18.084;2023-10-19T05:25:53;101741.06;;;18.88;90.15
66689;BME280;53587;59.318;18.084;2023-10-19T05:28:19;101738.97;;;19.62;93.39
66689;BME280;53587;59.318;18.084;2023-10-19T05:30:47;101746.16;;;19.53;83.58
66689;BME280;53587;59.318;18.084;2023-10-19T05:33:14;101736.03;;;17.68;70.20
66689;BME280;53587;59.318;18.084;2023-10-19T05:35:39;101743.09;;;19.03;90.81
66689;BME280;53587;59.318;18.084;2023-10-19T05:38:31;101747.25;;;19.52;88.27
66689;BME280;53587;59.318;18.084;2023-10-19T05:40:57;101742.66;;;18.63;72.67
66689;BME280;53587;59.318;18.084;2023-10-19T05:43:26;101748.50;;;18.13;85.09
66689;BME280;53587;59.318;18.084;2023-10-19T05:45:56;101750.00;;;19.15;92.58
66689;BME280;53587;59.318;18.084;2023-10-19T05:48:21;101746.16;;;19.73;92.15
66689;BME280;53587;59.318;18.084;2023-10-19T05:50:48;101739.53;;;19.18;79.01
66689;BME280;53587;59.318;18.084;2023-10-19T05:53:14;101742.19;;;18.13;73.33
66689;BME280;53587;59.318;18.084;2023-10-19T05:55:43;101733.59;;;18.73;89.70
66689;BME280;53587;59.318;18.084;2023-10-19T05:58:09;101748.38;;;19.51;93.45
66689;BME280;53587;59.318;18.084;2023-10-19T06:00:34;101743.66;;;19.41;84.12
66689;BME280;53587;59.318;18.084;2023-10-19T06:02:59;101736.44;;;17.17;70.45
66689;BME280;53587;59.318;18.084;2023-10-19T06:05:25;101754.84;;;18.72;91.04
66689;BME280;53587;59.318;18.084;2023-10-19T06:07:50;101740.06;;;19.51;93.23
66689;BME280;53587;59.318;18.084;2023-10-19T06:10:16;101732.88;;;19.13;80.84
66689;BME280;53587;59.318;18.084;2023-10-19T06:12:42;101738.63;;;17.42;71.45
66689;BME280;53587;59.318;18.084;2023-10-19T06:15:08;101749.78;;;17.63;86.16
66689;BME280;53587;59.318;18.084;2023-10-19T06:17:35;101753.75;;;18.73;93.99
66689;BME280;53587;59.318;18.084;2023-10-19T06:20:01;101743.94;;;19.44;93.88
66689;BME280;53587;59.318;18.084;2023-10-19T06:22:26;101745.31;;;19.16;82.24
66689;BME280;53587;59.318;18.084;2023-10-19T06:24:53;101742.91;;;17.98;72.67
66689;BME280;53587;59.318;18.084;2023-10-19T06:27:18;101742.50;;;18.27;88.46
66689;BME280;53587;59.318;18.084;2023-10-19T06:29:44;101743.38;;;19.27;94.61
66689;BME280;53587;59.318;18.084;2023-10-19T06:32:09;101748.66;;;19.34;86.31
66689;BME280;53587;59.318;18.084;2023-10-19T06:34:34;101743.16;;;17.59;70.32
66689;BME280;53587;59.318;18.084;2023-10-19T06:37:00;101746.28;;;18.63;91.51
66689;BME280;53587;59.318;18.084;2023-10-19T06:39:26;101753.06;;;19.60;95.61
66689;BME280;53587;59.318;18.084;2023-10-19T06:41:51;101747.53;;;19.35;85.38
66689;BME280;53587;59.318;18.084;2023-10-19T06:44:17;101741.38;;;17.15;71.31
66689;BME280;53587;59.318;18.084;2023-10-19T06:46:42;101744.72;;;18.93;92.89
66689;BME280;53587;59.318;18.084;2023-10-19T06:49:08;101752.25;;;19.39;88.94
66689;BME280;53587;59.318;18.084;2023-10-19T06:51:33;101730.97;;;18.30;73.57
66689;BME280;53587;59.318;18.084;2023-10-19T06:53:59;101731.91;;;18.03;88.46
66689;BME280;53587;59.318;18.084;2023-10-19T06:56:24;101738.44;;;19.19;94.14
66689;BME280;53587;59.318;18.084;2023-10-19T06:58:49;101734.25;;;19.73;92.98
66689;BME280;53587;59.318;18.084;2023-10-19T07:01:15;101732.41;;;18.53;75.03
66689;BME280;53587;59.318;18.084;2023-10-19T07:03:42;101723.22;;;18.32;89.44
66689;BME280;53587;59.318;18.084;2023-10-19T07:06:08;101731.78;;;19.40;93.21
66689;BME280;53587;59.318;18.084;2023-10-19T07:08:38;101724.00;;;19.06;79.59
66689;BME280;53587;59.318;18.084;2023-10-19T07:11:03;101719.34;;;17.15;72.38
66689;BME280;53587;59.318;18.084;2023-10-19T07:13:29;101719.25;;;18.81;93.14
66689;BME280;53587;59.318;18.084;2023-10-19T07:15:57;101723.78;;;19.59;93.58
66689;BME280;53587;59.318;18.084;2023-10-19T07:18:23;101712.97;;;18.91;77.42
66689;BME280;53587;59.318;18.084;2023-10-19T07:20:48;101720.66;;;18.15;85.54
66689;BME280;53587;59.318;18.084;2023-10-19T07:23:14;101720.75;;;19.35;93.05
66689;BME280;53587;59.318;18.084;2023-10-19T07:25:51;101718.81;;;19.25;83.00
66689;BME280;53587;59.318;18.084;2023-10-19T07:28:21;101713.97;;;17.63;69.54
66689;BME280;53587;59.318;18.084;2023-10-19T07:30:47;101717.31;;;18.76;91.25
66689;BME280;53587;59.318;18.084;2023-10-19T07:33:13;101720.16;;;19.64;94.29
66689;BME280;53587;59.318;18.084;2023-10-19T07:35:51;101711.91;;;19.23;83.08
66689;BME280;53587;59.318;18.084;2023-10-19T07:38:26;101720.63;;;17.67;83.57
66689;BME280;53587;59.318;18.084;2023-10-19T07:40:53;101720.19;;;19.18;93.19
66689;BME280;53587;59.318;18.084;2023-10-19T07:43:18;101720.19;;;19.49;87.63
66689;BME280;53587;59.318;18.084;2023-10-19T07:45:45;101717.69;;;18.32;73.20
66689;BME280;53587;59.318;18.084;2023-10-19T07:48:12;101714.03;;;18.16;89.59
66689;BME280;53587;59.318;18.084;2023-10-19T07:50:38;101726.00;;;19.31;94.46
66689;BME280;53587;59.318;18.084;2023-10-19T07:53:04;101720.75;;;19.56;90.26
66689;BME280;53587;59.318;18.084;2023-10-19T07:55:29;101724.66;;;17.92;71.50
66689;BME280;53587;59.318;18.084;2023-10-19T07:57:57;101717.81;;;18.63;90.34
66689;BME280;53587;59.318;18.084;2023-10-19T08:00:25;101717.97;;;19.56;93.22
66689;BME280;53587;59.318;18.084;2023-10-19T08:02:51;101709.28;;;18.64;77.64
66689;BME280;53587;59.318;18.084;2023-10-19T08:05:17;101715.59;;;17.59;81.04
66689;BME280;53587;59.318;18.084;2023-10-19T08:07:45;101715.47;;;19.08;93.26
66689;BME280;53587;59.318;18.084;2023-10-19T08:10:12;101715.47;;;19.65;92.98
66689;BME280;53587;59.318;18.084;2023-10-19T08:12:38;101718.38;;;18.65;75.42
66689;BME280;53587;59.318;18.084;2023-10-19T08:15:06;101711.09;;;18.33;88.96
66689;BME280;53587;59.318;18.084;2023-10-19T08:17:32;101711.31;;;19.52;94.73
66689;BME280;53587;59.318;18.084;2023-10-19T08:19:58;101713.00;;;19.11;80.04
66689;BME280;53587;59.318;18.084;2023-10-19T08:22:26;101709.44;;;17.46;74.42
66689;BME280;53587;59.318;18.084;2023-10-19T08:24:52;101714.63;;;18.92;91.57
66689;BME280;53587;59.318;18.084;2023-10-19T08:27:17;101734.53;;;19.66;94.03
66689;BME280;53587;59.318;18.084;2023-10-19T08:29:42;101728.44;;;19.07;80.25
66689;BME280;53587;59.318;18.084;2023-10-19T08:32:08;101723.63;;;17.98;83.53
66689;BME280;53587;59.318;18.084;2023-10-19T08:34:33;101721.28;;;19.27;93.29
66689;BME280;53587;59.318;18.084;2023-10-19T08:37:00;101724.03;;;19.63;89.44
66689;BME280;53587;59.318;18.084;2023-10-19T08:39:26;101712.25;;;18.47;72.99
66689;BME280;53587;59.318;18.084;2023-10-19T08:41:52;101717.22;;;18.45;90.17
66689;BME280;53587;59.318;18.084;2023-10-19T08:44:19;101742.03;;;19.50;94.71
66689;BME280;53587;59.318;18.084;2023-10-19T08:46:44;101718.50;;;19.63;87.48
66689;BME280;53587;59.318;18.084;2023-10-19T08:49:13;101718.03;;;17.93;70.00
66689;BME280;53587;59.318;18.084;2023-10-19T08:51:39;101719.06;;;19.03;91.63
66689;BME280;53587;59.318;18.084;2023-10-19T08:54:04;101718.50;;;19.63;89.74
66689;BME280;53587;59.318;18.084;2023-10-19T08:56:30;101719.25;;;18.71;76.41
66689;BME280;53587;59.318;18.084;2023-10-19T08:58:56;101711.28;;;17.73;84.63
66689;BME280;53587;59.318;18.084;2023-10-19T09:01:21;101720.72;;;19.20;94.97
66689;BME280;53587;59.318;18.084;2023-10-19T09:03:52;101712.16;;;19.37;88.98
66689;BME280;53587;59.318;18.084;2023-10-19T09:06:17;101714.81;;;18.06;71.43
66689;BME280;53587;59.318;18.084;2023-10-19T09:08:42;101724.81;;;18.91;91.71
66689;BME280;53587;59.318;18.084;2023-10-19T09:11:10;101722.38;;;19.52;90.33
66689;BME280;53587;59.318;18.084;2023-10-19T09:13:49;101713.38;;;18.57;74.75
66689;BME280;53587;59.318;18.084;2023-10-19T09:16:24;101726.38;;;17.98;86.41
66689;BME280;53587;59.318;18.084;2023-10-19T09:18:50;101737.03;;;19.42;95.93
66689;BME280;53587;59.318;18.084;2023-10-19T09:21:19;101722.94;;;19.18;82.83
66689;BME280;53587;59.318;18.084;2023-10-19T09:23:57;101725.19;;;16.69;72.92
66689;BME280;53587;59.318;18.084;2023-10-19T09:26:23;101725.59;;;18.81;92.75
66689;BME280;53587;59.318;18.084;2023-10-19T09:28:49;101723.50;;;19.56;92.98
66689;BME280;53587;59.318;18.084;2023-10-19T09:31:14;101726.72;;;18.80;75.27
66689;BME280;53587;59.318;18.084;2023-10-19T09:33:41;101745.97;;;18.01;83.40
66689;BME280;53587;59.318;18.084;2023-10-19T09:36:08;101741.19;;;19.29;94.10
66689;BME280;53587;59.318;18.084;2023-10-19T09:38:47;101734.56;;;19.35;86.00
66689;BME280;53587;59.318;18.084;2023-10-19T09:41:14;101724.50;;;17.06;67.48
66689;BME280;53587;59.318;18.084;2023-10-19T09:43:44;101738.56;;;18.71;91.23
66689;BME280;53587;59.318;18.084;2023-10-19T09:46:10;101734.84;;;19.59;93.21
66689;BME280;53587;59.318;18.084;2023-10-19T09:48:43;101721.44;;;18.79;76.29
66689;BME280;53587;59.318;18.084;2023-10-19T09:51:10;101736.81;;;17.96;84.27
66689;BME280;53587;59.318;18.084;2023-10-19T09:53:36;101728.19;;;19.29;94.38
66689;BME280;53587;59.318;18.084;2023-10-19T09:56:03;101731.53;;;19.26;85.15
66689;BME280;53587;59.318;18.084;2023-10-19T09:58:41;101725.34;;;17.06;67.81
66689;BME280;53587;59.318;18.084;2023-10-19T10:01:10;101726.88;;;18.48;92.19
66689;BME280;53587;59.318;18.084;2023-10-19T10:06:07;101719.19;;;18.60;75.67
66689;BME280;53587;59.318;18.084;2023-10-19T10:08:33;101725.38;;;17.77;85.92
66689;BME280;53587;59.318;18.084;2023-10-19T10:11:12;101734.00;;;19.18;94.11
66689;BME280;53587;59.318;18.084;2023-10-19T10:13:38;101733.44;;;19.10;83.77
66689;BME280;53587;59.318;18.084;2023-10-19T10:16:03;101728.22;;;17.22;68.63
66689;BME280;53587;59.318;18.084;2023-10-19T10:18:32;101734.66;;;18.66;92.00
66689;BME280;53587;59.318;18.084;2023-10-19T10:21:22;101735.13;;;19.47;93.07
66689;BME280;53587;59.318;18.084;2023-10-19T10:23:58;101721.63;;;18.46;74.79
66689;BME280;53587;59.318;18.084;2023-10-19T10:26:25;101735.59;;;18.24;88.63
66689;BME280;53587;59.318;18.084;2023-10-19T10:31:57;101721.16;;;18.65;76.05
66689;BME280;53587;59.318;18.084;2023-10-19T10:36:58;101742.56;;;19.26;94.75
66689;BME280;53587;59.318;18.084;2023-10-19T10:39:25;101722.38;;;19.21;85.39
66689;BME280;53587;59.318;18.084;2023-10-19T10:41:57;101723.72;;;17.43;70.12
66689;BME280;53587;59.318;18.084;2023-10-19T10:44:36;101726.16;;;18.89;92.43
66689;BME280;53587;59.318;18.084;2023-10-19T10:47:03;101731.22;;;19.64;92.88
66689;BME280;53587;59.318;18.084;2023-10-19T10:49:28;101725.84;;;18.64;75.77
66689;BME280;53587;59.318;18.084;2023-10-19T10:51:54;101726.22;;;17.82;84.14
66689;BME280;53587;59.318;18.084;2023-10-19T10:54:21;101731.22;;;19.28;95.05
66689;BME280;53587;59.318;18.084;2023-10-19T10:56:46;101727.09;;;19.36;88.03
66689;BME280;53587;59.318;18.084;2023-10-19T10:59:12;101731.03;;;17.97;71.54
66689;BME280;53587;59.318;18.084;2023-10-19T11:01:37;101730.59;;;18.79;89.53
66689;BME280;53587;59.318;18.084;2023-10-19T11:04:09;101725.41;;;19.76;95.21
66689;BME280;53587;59.318;18.084;2023-10-19T11:06:53;101732.91;;;19.19;77.44
66689;BME280;53587;59.318;18.084;2023-10-19T11:09:20;101714.34;;;18.19;82.20
66689;BME280;53587;59.318;18.084;2023-10-19T11:11:49;101727.91;;;19.46;93.84
66689;BME280;53587;59.318;18.084;2023-10-19T11:14:16;101722.41;;;19.31;82.05
66689;BME280;53587;59.318;18.084;2023-10-19T11:16:42;101725.16;;;17.89;68.44
66689;BME280;53587;59.318;18.084;2023-10-19T11:19:08;101714.75;;;17.96;84.16
66689;BME280;53587;59.318;18.084;2023-10-19T11:21:35;101729.00;;;19.20;93.17
66689;BME280;53587;59.318;18.084;2023-10-19T11:24:01;101722.38;;;19.46;87.67
66689;BME280;53587;59.318;18.084;2023-10-19T11:26:29;101719.63;;;18.26;73.67
66689;BME280;53587;59.318;18.084;2023-10-19T11:28:59;101721.66;;;18.51;89.52
66689;BME280;53587;59.318;18.084;2023-10-19T11:31:25;101716.28;;;19.65;95.14
66689;BME280;53587;59.318;18.084;2023-10-19T11:33:51;101717.69;;;19.37;85.49
66689;BME280;53587;59.318;18.084;2023-10-19T11:36:18;101706.66;;;17.41;69.46
66689;BME280;53587;59.318;18.084;2023-10-19T11:38:45;101720.34;;;18.75;92.00
66689;BME280;53587;59.318;18.084;2023-10-19T11:41:12;101704.97;;;19.61;93.61
66689;BME280;53587;59.318;18.084;2023-10-19T11:43:38;101704.06;;;18.78;76.98
66689;BME280;53587;59.318;18.084;2023-10-19T11:46:04;101709.09;;;17.75;84.48
66689;BME280;53587;59.318;18.084;2023-10-19T11:48:33;101720.44;;;19.16;94.79
66689;BME280;53587;59.318;18.084;2023-10-19T11:51:02;101718.25;;;19.39;89.46
66689;BME280;53587;59.318;18.084;2023-10-19T11:53:29;101715.84;;;17.52;71.53
66689;BME280;53587;59.318;18.084;2023-10-19T11:55:58;101728.84;;;18.53;92.42
66689;BME280;53587;59.318;18.084;2023-10-19T11:58:23;101719.34;;;19.63;96.02
66689;BME280;53587;59.318;18.084;2023-10-19T12:00:48;101717.38;;;18.92;81.09
66689;BME280;53587;59.318;18.084;2023-10-19T12:03:13;101718.19;;;16.83;75.45
66689;BME280;53587;59.318;18.084;2023-10-19T12:05:39;101728.09;;;18.83;93.12
66689;BME280;53587;59.318;18.084;2023-10-19T12:08:07;101719.34;;;19.43;92.46
66689;BME280;53587;59.318;18.084;2023-10-19T12:10:32;101704.19;;;18.30;76.78
66689;BME280;53587;59.318;18.084;2023-10-19T12:13:00;101706.97;;;18.41;89.10
66689;BME280;53587;59.318;18.084;2023-10-19T12:15:26;101705.78;;;19.57;95.52
66689;BME280;53587;59.318;18.084;2023-10-19T12:17:52;101706.34;;;19.07;81.53
66689;BME280;53587;59.318;18.084;2023-10-19T12:20:19;101693.78;;;17.19;71.31
66689;BME280;53587;59.318;18.084;2023-10-19T12:22:46;101699.66;;;18.82;92.31
66689;BME280;53587;59.318;18.084;2023-10-19T12:25:13;101697.81;;;19.40;91.07
66689;BME280;53587;59.318;18.084;2023-10-19T12:27:38;101689.66;;;18.56;74.29
66689;BME280;53587;59.318;18.084;2023-10-19T12:30:03;101691.69;;;18.12;86.06
66689;BME280;53587;59.318;18.084;2023-10-19T12:32:42;101691.44;;;19.39;94.32
66689;BME280;53587;59.318;18.084;2023-10-19T12:35:07;101700.28;;;19.26;84.53
66689;BME280;53587;59.318;18.084;2023-10-19T12:37:36;101695.88;;;17.39;66.92
66689;BME280;53587;59.318;18.084;2023-10-19T12:40:08;101684.50;;;18.90;92.03
66689;BME280;53587;59.318;18.084;2023-10-19T12:42:51;101693.09;;;19.45;89.34
66689;BME280;53587;59.318;18.084;2023-10-19T12:45:17;101671.28;;;18.18;72.19
66689;BME280;53587;59.318;18.084;2023-10-19T12:47:44;101680.81;;;18.48;89.53
66689;BME280;53587;59.318;18.084;2023-10-19T12:50:10;101677.88;;;19.58;94.61
66689;BME280;53587;59.318;18.084;2023-10-19T12:52:35;101686.47;;;19.46;85.35
66689;BME280;53587;59.318;18.084;2023-10-19T12:55:02;101684.94;;;17.50;68.91
66689;BME280;53587;59.318;18.084;2023-10-19T12:57:29;101686.41;;;18.90;90.64
66689;BME280;53587;59.318;18.084;2023-10-19T12:59:54;101690.88;;;19.53;90.45
66689;BME280;53587;59.318;18.084;2023-10-19T13:02:25;101680.75;;;18.43;71.63